Time,TemperatureF,DewpointF,PressureIn,WindDirection,WindDirectionDegrees,WindSpeedMPH,WindSpeedGustMPH,Humidity,HourlyPrecipIn,Conditions,Clouds,dailyrainin,SolarRadiationWatts/m^2,SoftwareType,DateUTC
2013-03-27 00:00:00,33.0,27.0,-100.00,West,270,4.0,-999.0,80,-99.99,,,-99.99,0.000000,,2013-03-27 04:00:00,
2013-03-27 00:43:00,33.0,27.0,-100.00,West,270,4.0,-999.0,80,-99.99,,,-99.99,0.000000,,2013-03-27 04:43:00,
2013-03-27 00:53:00,33.0,27.0,-100.00,West,270,4.0,-999.0,80,-99.99,,,-99.99,0.000000,,2013-03-27 04:53:00,
2013-03-27 01:00:00,33.0,25.0,-100.00,WNW,292,6.0,-999.0,73,-99.99,,,-99.99,0.000000,,2013-03-27 05:00:00,
2013-03-27 01:42:00,33.0,25.0,-100.00,WNW,292,6.0,-999.0,73,-99.99,,,-99.99,0.000000,,2013-03-27 05:42:00,
2013-03-27 01:53:00,33.0,25.0,-100.00,WNW,292,6.0,-999.0,73,-99.99,,,-99.99,0.000000,,2013-03-27 05:53:00,
2013-03-27 03:00:00,31.0,22.0,-100.00,WNW,292,5.0,-999.0,67,-99.99,,,-99.99,0.000000,,2013-03-27 07:00:00,
2013-03-27 03:43:00,31.0,22.0,-100.00,WNW,292,5.0,-999.0,67,-99.99,,,-99.99,0.000000,,2013-03-27 07:43:00,
2013-03-27 03:54:00,31.0,22.0,-100.00,WNW,292,5.0,-999.0,67,-99.99,,,-99.99,0.000000,,2013-03-27 07:54:00,
2013-03-27 05:00:00,29.0,22.0,-100.00,WNW,292,4.0,-999.0,74,-99.99,,,-99.99,0.000000,,2013-03-27 09:00:00,
2013-03-27 05:42:00,29.0,22.0,-100.00,WNW,292,4.0,-999.0,74,-99.99,,,-99.99,0.000000,,2013-03-27 09:42:00,
2013-03-27 05:52:00,29.0,22.0,-100.00,WNW,292,4.0,-999.0,74,-99.99,,,-99.99,0.000000,,2013-03-27 09:52:00,
2013-03-27 06:00:00,28.0,22.0,-100.00,WNW,292,4.0,-999.0,77,-99.99,,,-99.99,0.000000,,2013-03-27 10:00:00,
2013-03-27 06:42:00,28.0,22.0,-100.00,WNW,292,4.0,-999.0,77,-99.99,,,-99.99,0.000000,,2013-03-27 10:42:00,
2013-03-27 06:53:00,28.0,22.0,-100.00,WNW,292,4.0,-999.0,77,-99.99,,,-99.99,0.000000,,2013-03-27 10:53:00,
2013-03-27 07:00:00,27.0,22.0,-100.00,WNW,292,4.0,-999.0,79,-99.99,,,-99.99,0.000000,,2013-03-27 11:00:00,
2013-03-27 07:43:00,27.0,22.0,-100.00,WNW,292,4.0,-999.0,79,-99.99,,,-99.99,0.000000,,2013-03-27 11:43:00,
2013-03-27 07:53:00,27.0,22.0,-100.00,WNW,292,4.0,-999.0,79,-99.99,,,-99.99,0.000000,,2013-03-27 11:53:00,
2013-03-27 08:00:00,27.0,22.0,-100.00,WNW,292,5.0,-999.0,80,-99.99,,,-99.99,10.440000,,2013-03-27 12:00:00,
2013-03-27 08:43:00,27.0,22.0,-100.00,WNW,292,5.0,-999.0,80,-99.99,,,-99.99,10.440000,,2013-03-27 12:43:00,
2013-03-27 08:52:00,27.0,22.0,-100.00,WNW,292,5.0,-999.0,80,-99.99,,,-99.99,10.440000,,2013-03-27 12:52:00,
2013-03-27 09:00:00,29.0,23.0,-100.00,NW,315,9.0,-999.0,75,-99.99,,,-99.99,117.160004,,2013-03-27 13:00:00,
2013-03-27 09:42:00,29.0,23.0,-100.00,NW,315,9.0,-999.0,75,-99.99,,,-99.99,117.160004,,2013-03-27 13:42:00,
2013-03-27 09:53:00,29.0,23.0,-100.00,NW,315,9.0,-999.0,75,-99.99,,,-99.99,117.160004,,2013-03-27 13:53:00,
2013-03-27 10:00:00,32.0,23.0,-100.00,NW,315,9.0,-999.0,67,-99.99,,,-99.99,312.040009,,2013-03-27 14:00:00,
2013-03-27 10:42:00,32.0,23.0,-100.00,NW,315,9.0,-999.0,67,-99.99,,,-99.99,312.040009,,2013-03-27 14:42:00,
2013-03-27 10:52:00,32.0,23.0,-100.00,NW,315,9.0,-999.0,67,-99.99,,,-99.99,312.040009,,2013-03-27 14:52:00,
2013-03-27 11:00:00,35.0,23.0,-100.00,NW,315,10.0,-999.0,62,-99.99,,,-99.99,464.000000,,2013-03-27 15:00:00,
2013-03-27 11:43:00,35.0,23.0,-100.00,NW,315,10.0,-999.0,62,-99.99,,,-99.99,464.000000,,2013-03-27 15:43:00,
2013-03-27 11:53:00,35.0,23.0,-100.00,NW,315,10.0,-999.0,62,-99.99,,,-99.99,464.000000,,2013-03-27 15:53:00,
2013-03-27 12:00:00,38.0,24.0,-100.00,NW,315,10.0,-999.0,57,-99.99,,,-99.99,524.320007,,2013-03-27 16:00:00,
2013-03-27 12:42:00,38.0,24.0,-100.00,NW,315,10.0,-999.0,57,-99.99,,,-99.99,524.320007,,2013-03-27 16:42:00,
2013-03-27 12:52:00,38.0,24.0,-100.00,NW,315,10.0,-999.0,57,-99.99,,,-99.99,524.320007,,2013-03-27 16:52:00,
2013-03-27 13:00:00,40.0,23.0,-100.00,NW,315,10.0,-999.0,51,-99.99,,,-99.99,589.280029,,2013-03-27 17:00:00,
2013-03-27 13:44:00,40.0,23.0,-100.00,NW,315,10.0,-999.0,51,-99.99,,,-99.99,589.280029,,2013-03-27 17:44:00,
2013-03-27 13:52:00,40.0,23.0,-100.00,NW,315,10.0,-999.0,51,-99.99,,,-99.99,589.280029,,2013-03-27 17:52:00,
2013-03-27 14:00:00,41.0,22.0,-100.00,WNW,292,9.0,-999.0,45,-99.99,,,-99.99,515.039978,,2013-03-27 18:00:00,
2013-03-27 14:42:00,41.0,22.0,-100.00,WNW,292,9.0,-999.0,45,-99.99,,,-99.99,515.039978,,2013-03-27 18:42:00,
2013-03-27 14:53:00,41.0,22.0,-100.00,WNW,292,9.0,-999.0,45,-99.99,,,-99.99,515.039978,,2013-03-27 18:53:00,
2013-03-27 15:00:00,42.0,21.0,-100.00,WNW,292,9.0,-999.0,42,-99.99,,,-99.99,361.920013,,2013-03-27 19:00:00,
2013-03-27 15:42:00,42.0,21.0,-100.00,WNW,292,9.0,-999.0,42,-99.99,,,-99.99,361.920013,,2013-03-27 19:42:00,
2013-03-27 15:52:00,42.0,21.0,-100.00,WNW,292,9.0,-999.0,42,-99.99,,,-99.99,361.920013,,2013-03-27 19:52:00,
2013-03-27 16:00:00,43.0,22.0,-100.00,WNW,292,9.0,-999.0,41,-99.99,,,-99.99,466.320007,,2013-03-27 20:00:00,
2013-03-27 16:43:00,43.0,22.0,-100.00,WNW,292,9.0,-999.0,41,-99.99,,,-99.99,466.320007,,2013-03-27 20:43:00,
2013-03-27 16:52:00,43.0,22.0,-100.00,WNW,292,9.0,-999.0,41,-99.99,,,-99.99,466.320007,,2013-03-27 20:52:00,
2013-03-27 17:00:00,43.0,22.0,-100.00,NW,315,10.0,-999.0,43,-99.99,,,-99.99,296.959991,,2013-03-27 21:00:00,
2013-03-27 17:44:00,43.0,22.0,-100.00,NW,315,10.0,-999.0,43,-99.99,,,-99.99,296.959991,,2013-03-27 21:44:00,
2013-03-27 17:52:00,43.0,22.0,-100.00,NW,315,10.0,-999.0,43,-99.99,,,-99.99,296.959991,,2013-03-27 21:52:00,
2013-03-27 18:00:00,42.0,22.0,-100.00,WNW,292,9.0,-999.0,43,-99.99,,,-99.99,169.360001,,2013-03-27 22:00:00,
2013-03-27 18:42:00,42.0,22.0,-100.00,WNW,292,9.0,-999.0,43,-99.99,,,-99.99,169.360001,,2013-03-27 22:42:00,
2013-03-27 18:53:00,42.0,22.0,-100.00,WNW,292,9.0,-999.0,43,-99.99,,,-99.99,169.360001,,2013-03-27 22:53:00,
2013-03-27 19:00:00,41.0,22.0,-100.00,WNW,292,6.0,-999.0,44,-99.99,,,-99.99,59.160000,,2013-03-27 23:00:00,
2013-03-27 19:43:00,41.0,22.0,-100.00,WNW,292,6.0,-999.0,44,-99.99,,,-99.99,59.160000,,2013-03-27 23:43:00,
2013-03-27 19:52:00,41.0,22.0,-100.00,WNW,292,6.0,-999.0,44,-99.99,,,-99.99,59.160000,,2013-03-27 23:52:00,
2013-03-27 20:00:00,41.0,22.0,-100.00,WNW,292,7.0,-999.0,45,-99.99,,,-99.99,29.000000,,2013-03-28 00:00:00,
2013-03-27 20:43:00,41.0,22.0,-100.00,WNW,292,7.0,-999.0,45,-99.99,,,-99.99,29.000000,,2013-03-28 00:43:00,
2013-03-27 20:52:00,41.0,22.0,-100.00,WNW,292,7.0,-999.0,45,-99.99,,,-99.99,29.000000,,2013-03-28 00:52:00,
2013-03-27 21:00:00,40.0,22.0,-100.00,WNW,292,4.0,-999.0,49,-99.99,,,-99.99,0.000000,,2013-03-28 01:00:00,
2013-03-27 21:42:00,40.0,22.0,-100.00,WNW,292,4.0,-999.0,49,-99.99,,,-99.99,0.000000,,2013-03-28 01:42:00,
2013-03-27 21:53:00,40.0,22.0,-100.00,WNW,292,4.0,-999.0,49,-99.99,,,-99.99,0.000000,,2013-03-28 01:53:00,
2013-03-27 22:00:00,39.0,22.0,-100.00,WNW,292,5.0,-999.0,50,-99.99,,,-99.99,0.000000,,2013-03-28 02:00:00,
2013-03-27 23:00:00,37.0,22.0,-100.00,WNW,292,7.0,-999.0,52,-99.99,,,-99.99,0.000000,,2013-03-28 03:00:00,
2013-03-27 23:43:00,37.0,22.0,-100.00,WNW,292,7.0,-999.0,52,-99.99,,,-99.99,0.000000,,2013-03-28 03:43:00,
2013-03-27 23:53:00,37.0,22.0,-100.00,WNW,292,7.0,-999.0,52,-99.99,,,-99.99,0.000000,,2013-03-28 03:53:00,